sensor_id;sensor_type;location;lat;lon;timestamp;P1;durP1;ratioP1;P2;durP2;ratioP2
6348;SDS011;3207;42.648;23.406;2023-02-26T00:02:25;3.00;;;2.43;;
6348;SDS011;3207;42.648;23.406;2023-02-26T00:04:53;2.23;;;2.00;;
6348;SDS011;3207;42.648;23.406;2023-02-26T00:07:19;3.70;;;2.43;;
6348;SDS011;3207;42.648;23.406;2023-02-26T00:09:46;2.67;;;2.43;;
6348;SDS011;3207;42.648;23.406;2023-02-26T00:12:13;3.43;;;2.67;;
6348;SDS011;3207;42.648;23.406;2023-02-26T00:14:40;3.50;;;2.50;;
6348;SDS011;3207;42.648;23.406;2023-02-26T00:17:13;2.77;;;2.33;;
6348;SDS011;3207;42.648;23.406;2023-02-26T00:19:57;3.20;;;2.90;;
6348;SDS011;3207;42.648;23.406;2023-02-26T00:22:24;3.50;;;2.90;;
6348;SDS011;3207;42.648;23.406;2023-02-26T00:24:52;2.57;;;2.30;;
6348;SDS011;3207;42.648;23.406;2023-02-26T00:27:19;3.83;;;2.67;;
6348;SDS011;3207;42.648;23.406;2023-02-26T00:29:45;3.30;;;3.00;;
6348;SDS011;3207;42.648;23.406;2023-02-26T00:32:13;2.10;;;2.00;;
6348;SDS011;3207;42.648;23.406;2023-02-26T00:34:42;2.40;;;2.20;;
6348;SDS011;3207;42.648;23.406;2023-02-26T00:37:15;2.33;;;2.13;;
6348;SDS011;3207;42.648;23.406;2023-02-26T00:39:57;4.20;;;2.80;;
6348;SDS011;3207;42.648;23.406;2023-02-26T00:42:33;2.17;;;1.97;;
6348;SDS011;3207;42.648;23.406;2023-02-26T00:45:01;1.60;;;1.50;;
6348;SDS011;3207;42.648;23.406;2023-02-26T00:47:29;1.47;;;1.30;;
6348;SDS011;3207;42.648;23.406;2023-02-26T00:50:08;1.40;;;1.30;;
6348;SDS011;3207;42.648;23.406;2023-02-26T00:52:42;1.30;;;1.20;;
6348;SDS011;3207;42.648;23.406;2023-02-26T00:55:15;1.20;;;1.10;;
6348;SDS011;3207;42.648;23.406;2023-02-26T00:57:43;1.73;;;1.63;;
6348;SDS011;3207;42.648;23.406;2023-02-26T01:00:11;1.40;;;1.30;;
6348;SDS011;3207;42.648;23.406;2023-02-26T01:02:38;2.47;;;1.20;;
6348;SDS011;3207;42.648;23.406;2023-02-26T01:05:06;1.10;;;1.10;;
6348;SDS011;3207;42.648;23.406;2023-02-26T01:07:37;1.20;;;1.10;;
6348;SDS011;3207;42.648;23.406;2023-02-26T01:10:10;1.40;;;1.30;;
6348;SDS011;3207;42.648;23.406;2023-02-26T01:12:38;2.07;;;1.57;;
6348;SDS011;3207;42.648;23.406;2023-02-26T01:15:06;1.60;;;1.50;;
6348;SDS011;3207;42.648;23.406;2023-02-26T01:17:35;1.40;;;1.30;;
6348;SDS011;3207;42.648;23.406;2023-02-26T01:20:10;1.50;;;1.40;;
6348;SDS011;3207;42.648;23.406;2023-02-26T01:22:43;1.20;;;1.10;;
6348;SDS011;3207;42.648;23.406;2023-02-26T01:25:19;1.40;;;1.30;;
6348;SDS011;3207;42.648;23.406;2023-02-26T01:27:50;2.73;;;1.20;;
6348;SDS011;3207;42.648;23.406;2023-02-26T01:30:18;1.00;;;0.80;;
6348;SDS011;3207;42.648;23.406;2023-02-26T01:32:47;2.47;;;1.00;;
6348;SDS011;3207;42.648;23.406;2023-02-26T01:35:23;1.10;;;1.00;;
6348;SDS011;3207;42.648;23.406;2023-02-26T01:38:03;1.03;;;1.00;;
6348;SDS011;3207;42.648;23.406;2023-02-26T01:40:45;2.20;;;0.90;;
6348;SDS011;3207;42.648;23.406;2023-02-26T01:43:31;1.20;;;1.10;;
6348;SDS011;3207;42.648;23.406;2023-02-26T01:46:04;1.63;;;1.10;;
6348;SDS011;3207;42.648;23.406;2023-02-26T01:48:43;2.00;;;1.20;;
6348;SDS011;3207;42.648;23.406;2023-02-26T01:51:15;1.30;;;1.20;;
6348;SDS011;3207;42.648;23.406;2023-02-26T01:53:42;1.20;;;1.10;;
6348;SDS011;3207;42.648;23.406;2023-02-26T01:56:12;1.27;;;1.10;;
6348;SDS011;3207;42.648;23.406;2023-02-26T01:58:42;1.50;;;1.40;;
6348;SDS011;3207;42.648;23.406;2023-02-26T02:01:10;1.20;;;1.10;;
6348;SDS011;3207;42.648;23.406;2023-02-26T02:03:37;1.23;;;1.13;;
6348;SDS011;3207;42.648;23.406;2023-02-26T02:06:06;2.23;;;1.80;;
6348;SDS011;3207;42.648;23.406;2023-02-26T02:08:33;1.30;;;1.20;;
6348;SDS011;3207;42.648;23.406;2023-02-26T02:11:01;1.93;;;1.13;;
6348;SDS011;3207;42.648;23.406;2023-02-26T02:13:39;1.40;;;1.30;;
6348;SDS011;3207;42.648;23.406;2023-02-26T02:16:19;1.17;;;1.07;;
6348;SDS011;3207;42.648;23.406;2023-02-26T02:18:55;2.00;;;1.43;;
6348;SDS011;3207;42.648;23.406;2023-02-26T02:24:22;2.00;;;1.33;;
6348;SDS011;3207;42.648;23.406;2023-02-26T02:26:57;2.00;;;1.10;;
6348;SDS011;3207;42.648;23.406;2023-02-26T02:29:37;1.17;;;1.13;;
6348;SDS011;3207;42.648;23.406;2023-02-26T02:32:22;1.30;;;1.20;;
6348;SDS011;3207;42.648;23.406;2023-02-26T02:34:57;1.20;;;1.10;;
6348;SDS011;3207;42.648;23.406;2023-02-26T02:37:29;1.80;;;1.13;;
6348;SDS011;3207;42.648;23.406;2023-02-26T02:40:02;1.73;;;1.20;;
6348;SDS011;3207;42.648;23.406;2023-02-26T02:42:33;0.87;;;0.87;;
6348;SDS011;3207;42.648;23.406;2023-02-26T02:45:06;1.80;;;1.57;;
6348;SDS011;3207;42.648;23.406;2023-02-26T02:47:39;1.53;;;1.43;;
6348;SDS011;3207;42.648;23.406;2023-02-26T02:50:10;1.17;;;1.13;;
6348;SDS011;3207;42.648;23.406;2023-02-26T02:52:40;1.53;;;1.20;;
6348;SDS011;3207;42.648;23.406;2023-02-26T02:55:15;1.13;;;1.07;;
6348;SDS011;3207;42.648;23.406;2023-02-26T02:57:47;1.13;;;1.10;;
6348;SDS011;3207;42.648;23.406;2023-02-26T03:00:20;1.67;;;1.40;;
6348;SDS011;3207;42.648;23.406;2023-02-26T03:02:51;1.40;;;1.30;;
6348;SDS011;3207;42.648;23.406;2023-02-26T03:05:25;1.90;;;1.80;;
6348;SDS011;3207;42.648;23.406;2023-02-26T03:07:53;1.30;;;1.20;;
6348;SDS011;3207;42.648;23.406;2023-02-26T03:10:21;1.10;;;1.10;;
6348;SDS011;3207;42.648;23.406;2023-02-26T03:12:49;1.63;;;1.30;;
6348;SDS011;3207;42.648;23.406;2023-02-26T03:15:16;1.40;;;1.30;;
6348;SDS011;3207;42.648;23.406;2023-02-26T03:18:03;1.40;;;1.30;;
6348;SDS011;3207;42.648;23.406;2023-02-26T03:20:39;1.13;;;1.10;;
6348;SDS011;3207;42.648;23.406;2023-02-26T03:23:13;1.37;;;1.27;;
6348;SDS011;3207;42.648;23.406;2023-02-26T03:25:47;1.30;;;1.20;;
6348;SDS011;3207;42.648;23.406;2023-02-26T03:28:18;1.73;;;1.60;;
6348;SDS011;3207;42.648;23.406;2023-02-26T03:30:53;1.37;;;1.20;;
6348;SDS011;3207;42.648;23.406;2023-02-26T03:33:26;1.30;;;1.20;;
6348;SDS011;3207;42.648;23.406;2023-02-26T03:35:58;1.50;;;1.40;;
6348;SDS011;3207;42.648;23.406;2023-02-26T03:38:32;1.30;;;1.20;;
6348;SDS011;3207;42.648;23.406;2023-02-26T03:41:05;1.30;;;1.20;;
6348;SDS011;3207;42.648;23.406;2023-02-26T03:43:36;1.40;;;1.30;;
6348;SDS011;3207;42.648;23.406;2023-02-26T03:46:10;2.27;;;1.43;;
6348;SDS011;3207;42.648;23.406;2023-02-26T03:48:43;1.93;;;1.43;;
6348;SDS011;3207;42.648;23.406;2023-02-26T03:51:13;2.70;;;1.37;;
6348;SDS011;3207;42.648;23.406;2023-02-26T03:53:42;2.07;;;1.30;;
6348;SDS011;3207;42.648;23.406;2023-02-26T03:56:16;1.50;;;1.40;;
6348;SDS011;3207;42.648;23.406;2023-02-26T03:58:51;1.40;;;1.30;;
6348;SDS011;3207;42.648;23.406;2023-02-26T04:01:19;1.50;;;1.40;;
6348;SDS011;3207;42.648;23.406;2023-02-26T04:03:52;1.67;;;1.30;;
6348;SDS011;3207;42.648;23.406;2023-02-26T04:06:24;1.10;;;1.10;;
6348;SDS011;3207;42.648;23.406;2023-02-26T04:08:51;1.47;;;1.33;;
6348;SDS011;3207;42.648;23.406;2023-02-26T04:11:20;1.10;;;1.10;;
6348;SDS011;3207;42.648;23.406;2023-02-26T04:13:47;1.10;;;1.10;;
6348;SDS011;3207;42.648;23.406;2023-02-26T04:16:14;1.40;;;1.30;;
6348;SDS011;3207;42.648;23.406;2023-02-26T04:18:42;1.50;;;1.40;;
6348;SDS011;3207;42.648;23.406;2023-02-26T04:21:11;1.27;;;1.17;;
6348;SDS011;3207;42.648;23.406;2023-02-26T04:23:38;1.40;;;1.30;;
6348;SDS011;3207;42.648;23.406;2023-02-26T04:26:05;1.40;;;1.30;;
6348;SDS011;3207;42.648;23.406;2023-02-26T04:28:32;2.33;;;1.70;;
6348;SDS011;3207;42.648;23.406;2023-02-26T04:31:01;1.27;;;1.17;;
6348;SDS011;3207;42.648;23.406;2023-02-26T04:33:28;1.10;;;1.10;;
6348;SDS011;3207;42.648;23.406;2023-02-26T04:35:56;1.40;;;1.30;;
6348;SDS011;3207;42.648;23.406;2023-02-26T04:38:24;1.17;;;1.10;;
6348;SDS011;3207;42.648;23.406;2023-02-26T04:40:51;1.30;;;1.20;;
6348;SDS011;3207;42.648;23.406;2023-02-26T04:43:18;1.50;;;1.40;;
6348;SDS011;3207;42.648;23.406;2023-02-26T04:45:45;1.80;;;1.70;;
6348;SDS011;3207;42.648;23.406;2023-02-26T04:48:12;1.70;;;1.60;;
6348;SDS011;3207;42.648;23.406;2023-02-26T04:50:39;1.33;;;1.23;;
6348;SDS011;3207;42.648;23.406;2023-02-26T04:53:06;1.67;;;1.57;;
6348;SDS011;3207;42.648;23.406;2023-02-26T04:55:34;1.40;;;1.30;;
6348;SDS011;3207;42.648;23.406;2023-02-26T04:58:01;1.67;;;1.57;;
6348;SDS011;3207;42.648;23.406;2023-02-26T05:00:29;1.80;;;1.70;;
6348;SDS011;3207;42.648;23.406;2023-02-26T05:02:55;1.97;;;1.87;;
6348;SDS011;3207;42.648;23.406;2023-02-26T05:05:22;1.53;;;1.43;;
6348;SDS011;3207;42.648;23.406;2023-02-26T05:07:49;1.67;;;1.57;;
6348;SDS011;3207;42.648;23.406;2023-02-26T05:10:22;2.33;;;1.80;;
6348;SDS011;3207;42.648;23.406;2023-02-26T05:12:51;1.67;;;1.57;;
6348;SDS011;3207;42.648;23.406;2023-02-26T05:15:18;2.10;;;1.90;;
6348;SDS011;3207;42.648;23.406;2023-02-26T05:17:45;1.90;;;1.80;;
6348;SDS011;3207;42.648;23.406;2023-02-26T05:20:12;1.83;;;1.73;;
6348;SDS011;3207;42.648;23.406;2023-02-26T05:22:40;1.60;;;1.50;;
6348;SDS011;3207;42.648;23.406;2023-02-26T05:25:07;2.03;;;1.83;;
6348;SDS011;3207;42.648;23.406;2023-02-26T05:27:36;1.50;;;1.43;;
6348;SDS011;3207;42.648;23.406;2023-02-26T05:30:06;1.73;;;1.63;;
6348;SDS011;3207;42.648;23.406;2023-02-26T05:32:34;1.63;;;1.53;;
6348;SDS011;3207;42.648;23.406;2023-02-26T05:35:02;2.87;;;1.60;;
6348;SDS011;3207;42.648;23.406;2023-02-26T05:37:29;1.93;;;1.60;;
6348;SDS011;3207;42.648;23.406;2023-02-26T05:39:56;1.60;;;1.50;;
6348;SDS011;3207;42.648;23.406;2023-02-26T05:42:23;1.83;;;1.53;;
6348;SDS011;3207;42.648;23.406;2023-02-26T05:44:50;1.90;;;1.70;;
6348;SDS011;3207;42.648;23.406;2023-02-26T05:47:18;1.53;;;1.43;;
6348;SDS011;3207;42.648;23.406;2023-02-26T05:49:45;1.73;;;1.63;;
6348;SDS011;3207;42.648;23.406;2023-02-26T05:52:12;1.90;;;1.70;;
6348;SDS011;3207;42.648;23.406;2023-02-26T05:54:39;1.93;;;1.83;;
6348;SDS011;3207;42.648;23.406;2023-02-26T05:57:06;2.47;;;2.10;;
6348;SDS011;3207;42.648;23.406;2023-02-26T05:59:33;2.47;;;2.27;;
6348;SDS011;3207;42.648;23.406;2023-02-26T06:01:59;2.50;;;2.30;;
6348;SDS011;3207;42.648;23.406;2023-02-26T06:04:27;2.60;;;2.33;;
6348;SDS011;3207;42.648;23.406;2023-02-26T06:06:54;2.97;;;2.30;;
6348;SDS011;3207;42.648;23.406;2023-02-26T06:09:21;2.93;;;1.90;;
6348;SDS011;3207;42.648;23.406;2023-02-26T06:11:48;2.80;;;2.30;;
6348;SDS011;3207;42.648;23.406;2023-02-26T06:14:15;2.80;;;2.60;;
6348;SDS011;3207;42.648;23.406;2023-02-26T06:16:41;3.07;;;2.60;;
6348;SDS011;3207;42.648;23.406;2023-02-26T06:19:08;3.00;;;2.70;;
6348;SDS011;3207;42.648;23.406;2023-02-26T06:21:36;2.53;;;2.33;;
6348;SDS011;3207;42.648;23.406;2023-02-26T06:24:04;3.50;;;3.20;;
6348;SDS011;3207;42.648;23.406;2023-02-26T06:26:31;2.93;;;2.60;;
6348;SDS011;3207;42.648;23.406;2023-02-26T06:28:58;2.80;;;2.60;;
6348;SDS011;3207;42.648;23.406;2023-02-26T06:31:25;3.00;;;2.80;;
6348;SDS011;3207;42.648;23.406;2023-02-26T06:33:51;6.33;;;3.37;;
6348;SDS011;3207;42.648;23.406;2023-02-26T06:36:18;3.27;;;3.07;;
6348;SDS011;3207;42.648;23.406;2023-02-26T06:38:47;3.43;;;3.13;;
6348;SDS011;3207;42.648;23.406;2023-02-26T06:41:13;3.67;;;3.37;;
6348;SDS011;3207;42.648;23.406;2023-02-26T06:43:40;3.67;;;3.20;;
6348;SDS011;3207;42.648;23.406;2023-02-26T06:46:07;4.80;;;3.70;;
6348;SDS011;3207;42.648;23.406;2023-02-26T06:48:34;3.57;;;3.27;;
6348;SDS011;3207;42.648;23.406;2023-02-26T06:51:00;4.60;;;3.43;;
6348;SDS011;3207;42.648;23.406;2023-02-26T06:53:27;5.87;;;5.27;;
6348;SDS011;3207;42.648;23.406;2023-02-26T06:55:56;5.47;;;4.23;;
6348;SDS011;3207;42.648;23.406;2023-02-26T06:58:22;6.23;;;4.03;;
6348;SDS011;3207;42.648;23.406;2023-02-26T07:00:49;3.40;;;3.10;;
6348;SDS011;3207;42.648;23.406;2023-02-26T07:03:17;3.47;;;3.17;;
6348;SDS011;3207;42.648;23.406;2023-02-26T07:05:44;4.13;;;3.37;;
6348;SDS011;3207;42.648;23.406;2023-02-26T07:08:11;3.47;;;3.17;;
6348;SDS011;3207;42.648;23.406;2023-02-26T07:10:38;3.57;;;3.27;;
6348;SDS011;3207;42.648;23.406;2023-02-26T07:13:08;3.03;;;2.83;;
6348;SDS011;3207;42.648;23.406;2023-02-26T07:15:34;3.83;;;3.43;;
6348;SDS011;3207;42.648;23.406;2023-02-26T07:18:01;3.87;;;3.53;;
6348;SDS011;3207;42.648;23.406;2023-02-26T07:20:28;3.90;;;3.60;;
6348;SDS011;3207;42.648;23.406;2023-02-26T07:22:55;4.20;;;3.67;;
6348;SDS011;3207;42.648;23.406;2023-02-26T07:25:22;5.63;;;3.73;;
6348;SDS011;3207;42.648;23.406;2023-02-26T07:27:49;4.33;;;3.90;;
6348;SDS011;3207;42.648;23.406;2023-02-26T07:30:18;4.67;;;4.17;;
6348;SDS011;3207;42.648;23.406;2023-02-26T07:32:45;4.60;;;4.07;;
6348;SDS011;3207;42.648;23.406;2023-02-26T07:35:11;4.23;;;3.83;;
6348;SDS011;3207;42.648;23.406;2023-02-26T07:37:38;4.27;;;3.67;;
6348;SDS011;3207;42.648;23.406;2023-02-26T07:40:05;4.53;;;4.07;;
6348;SDS011;3207;42.648;23.406;2023-02-26T07:42:33;4.17;;;3.77;;
6348;SDS011;3207;42.648;23.406;2023-02-26T07:45:00;3.83;;;3.53;;
6348;SDS011;3207;42.648;23.406;2023-02-26T07:47:29;3.53;;;3.23;;
6348;SDS011;3207;42.648;23.406;2023-02-26T07:49:56;3.60;;;3.23;;
6348;SDS011;3207;42.648;23.406;2023-02-26T07:52:23;4.10;;;3.60;;
6348;SDS011;3207;42.648;23.406;2023-02-26T07:54:50;3.93;;;3.63;;
6348;SDS011;3207;42.648;23.406;2023-02-26T07:57:17;3.77;;;3.47;;
6348;SDS011;3207;42.648;23.406;2023-02-26T07:59:50;4.27;;;3.40;;
6348;SDS011;3207;42.648;23.406;2023-02-26T08:02:16;3.27;;;2.80;;
6348;SDS011;3207;42.648;23.406;2023-02-26T08:04:45;3.37;;;3.07;;
6348;SDS011;3207;42.648;23.406;2023-02-26T08:07:12;3.43;;;3.13;;
6348;SDS011;3207;42.648;23.406;2023-02-26T08:09:38;3.53;;;3.23;;
6348;SDS011;3207;42.648;23.406;2023-02-26T08:12:05;3.73;;;3.37;;
6348;SDS011;3207;42.648;23.406;2023-02-26T08:14:32;3.83;;;3.53;;
6348;SDS011;3207;42.648;23.406;2023-02-26T08:16:59;3.17;;;2.90;;
6348;SDS011;3207;42.648;23.406;2023-02-26T08:19:25;3.43;;;2.60;;
6348;SDS011;3207;42.648;23.406;2023-02-26T08:21:54;2.97;;;2.77;;
6348;SDS011;3207;42.648;23.406;2023-02-26T08:24:21;2.30;;;2.10;;
6348;SDS011;3207;42.648;23.406;2023-02-26T08:26:47;2.83;;;2.63;;
6348;SDS011;3207;42.648;23.406;2023-02-26T08:29:14;3.20;;;2.70;;
6348;SDS011;3207;42.648;23.406;2023-02-26T08:31:42;3.20;;;2.80;;
6348;SDS011;3207;42.648;23.406;2023-02-26T08:34:08;2.87;;;2.67;;
6348;SDS011;3207;42.648;23.406;2023-02-26T08:36:35;3.60;;;3.30;;
6348;SDS011;3207;42.648;23.406;2023-02-26T08:39:04;3.07;;;2.73;;
6348;SDS011;3207;42.648;23.406;2023-02-26T08:41:32;2.70;;;2.50;;
6348;SDS011;3207;42.648;23.406;2023-02-26T08:44:00;2.83;;;2.63;;
6348;SDS011;3207;42.648;23.406;2023-02-26T08:46:27;2.60;;;2.40;;
6348;SDS011;3207;42.648;23.406;2023-02-26T08:48:54;2.90;;;2.63;;
6348;SDS011;3207;42.648;23.406;2023-02-26T08:51:21;3.23;;;2.93;;
6348;SDS011;3207;42.648;23.406;2023-02-26T08:53:48;3.00;;;2.80;;
6348;SDS011;3207;42.648;23.406;2023-02-26T08:56:16;3.07;;;2.60;;
6348;SDS011;3207;42.648;23.406;2023-02-26T08:58:43;3.83;;;3.40;;
6348;SDS011;3207;42.648;23.406;2023-02-26T09:01:10;2.73;;;2.53;;
6348;SDS011;3207;42.648;23.406;2023-02-26T09:03:37;3.20;;;2.90;;
6348;SDS011;3207;42.648;23.406;2023-02-26T09:06:04;3.10;;;2.80;;
6348;SDS011;3207;42.648;23.406;2023-02-26T09:08:31;3.27;;;2.97;;
6348;SDS011;3207;42.648;23.406;2023-02-26T09:10:59;3.00;;;2.70;;
6348;SDS011;3207;42.648;23.406;2023-02-26T09:13:28;2.97;;;2.77;;
6348;SDS011;3207;42.648;23.406;2023-02-26T09:15:56;3.40;;;3.10;;
6348;SDS011;3207;42.648;23.406;2023-02-26T09:18:23;3.00;;;2.70;;
6348;SDS011;3207;42.648;23.406;2023-02-26T09:20:49;2.80;;;2.60;;
6348;SDS011;3207;42.648;23.406;2023-02-26T09:23:16;2.83;;;2.60;;
6348;SDS011;3207;42.648;23.406;2023-02-26T09:25:43;3.23;;;2.93;;
6348;SDS011;3207;42.648;23.406;2023-02-26T09:28:10;2.87;;;2.60;;
6348;SDS011;3207;42.648;23.406;2023-02-26T09:30:39;3.33;;;3.03;;
6348;SDS011;3207;42.648;23.406;2023-02-26T09:33:06;3.33;;;2.87;;
6348;SDS011;3207;42.648;23.406;2023-02-26T09:35:34;3.27;;;2.97;;
6348;SDS011;3207;42.648;23.406;2023-02-26T09:38:01;3.30;;;2.90;;
6348;SDS011;3207;42.648;23.406;2023-02-26T09:40:31;3.03;;;2.80;;
6348;SDS011;3207;42.648;23.406;2023-02-26T09:43:13;3.43;;;3.10;;
6348;SDS011;3207;42.648;23.406;2023-02-26T09:46:02;3.13;;;2.83;;
6348;SDS011;3207;42.648;23.406;2023-02-26T09:48:39;3.30;;;3.00;;
6348;SDS011;3207;42.648;23.406;2023-02-26T09:51:07;3.10;;;2.80;;
6348;SDS011;3207;42.648;23.406;2023-02-26T09:53:40;3.80;;;2.90;;
6348;SDS011;3207;42.648;23.406;2023-02-26T09:56:10;3.33;;;3.03;;
6348;SDS011;3207;42.648;23.406;2023-02-26T09:58:42;2.60;;;2.40;;
6348;SDS011;3207;42.648;23.406;2023-02-26T10:01:11;2.07;;;1.83;;
6348;SDS011;3207;42.648;23.406;2023-02-26T10:03:48;2.50;;;2.27;;
6348;SDS011;3207;42.648;23.406;2023-02-26T10:06:24;2.63;;;2.43;;
6348;SDS011;3207;42.648;23.406;2023-02-26T10:11:46;2.03;;;1.93;;
6348;SDS011;3207;42.648;23.406;2023-02-26T10:14:18;2.40;;;2.20;;
6348;SDS011;3207;42.648;23.406;2023-02-26T10:16:50;2.20;;;2.00;;
6348;SDS011;3207;42.648;23.406;2023-02-26T10:19:22;1.90;;;1.77;;
6348;SDS011;3207;42.648;23.406;2023-02-26T10:21:55;2.23;;;2.03;;
6348;SDS011;3207;42.648;23.406;2023-02-26T10:24:40;2.00;;;1.80;;
6348;SDS011;3207;42.648;23.406;2023-02-26T10:27:17;2.60;;;2.40;;
6348;SDS011;3207;42.648;23.406;2023-02-26T10:29:50;3.00;;;2.00;;
6348;SDS011;3207;42.648;23.406;2023-02-26T10:32:32;2.47;;;2.27;;
6348;SDS011;3207;42.648;23.406;2023-02-26T10:35:04;2.93;;;2.60;;
6348;SDS011;3207;42.648;23.406;2023-02-26T10:37:40;2.33;;;2.10;;
6348;SDS011;3207;42.648;23.406;2023-02-26T10:40:14;4.60;;;2.30;;
6348;SDS011;3207;42.648;23.406;2023-02-26T10:42:45;2.53;;;2.23;;
6348;SDS011;3207;42.648;23.406;2023-02-26T10:45:21;2.53;;;2.10;;
6348;SDS011;3207;42.648;23.406;2023-02-26T10:48:00;2.33;;;2.17;;
6348;SDS011;3207;42.648;23.406;2023-02-26T10:50:38;2.83;;;2.60;;
6348;SDS011;3207;42.648;23.406;2023-02-26T10:53:11;3.20;;;2.87;;
6348;SDS011;3207;42.648;23.406;2023-02-26T10:55:38;2.77;;;2.43;;
6348;SDS011;3207;42.648;23.406;2023-02-26T10:58:10;2.43;;;2.23;;
6348;SDS011;3207;42.648;23.406;2023-02-26T11:00:39;2.83;;;2.53;;
6348;SDS011;3207;42.648;23.406;2023-02-26T11:03:12;3.00;;;2.80;;
6348;SDS011;3207;42.648;23.406;2023-02-26T11:05:42;3.57;;;2.60;;
6348;SDS011;3207;42.648;23.406;2023-02-26T11:08:10;3.07;;;2.77;;
6348;SDS011;3207;42.648;23.406;2023-02-26T11:10:44;3.17;;;2.47;;
6348;SDS011;3207;42.648;23.406;2023-02-26T11:13:14;2.80;;;2.50;;
6348;SDS011;3207;42.648;23.406;2023-02-26T11:15:41;4.13;;;3.60;;
6348;SDS011;3207;42.648;23.406;2023-02-26T11:18:14;3.20;;;2.90;;
6348;SDS011;3207;42.648;23.406;2023-02-26T11:20:45;2.87;;;2.63;;
6348;SDS011;3207;42.648;23.406;2023-02-26T11:23:15;2.67;;;2.47;;
6348;SDS011;3207;42.648;23.406;2023-02-26T11:25:51;2.67;;;2.47;;
6348;SDS011;3207;42.648;23.406;2023-02-26T11:28:21;6.07;;;3.00;;
6348;SDS011;3207;42.648;23.406;2023-02-26T11:30:51;3.20;;;2.57;;
6348;SDS011;3207;42.648;23.406;2023-02-26T11:33:22;3.07;;;2.83;;
6348;SDS011;3207;42.648;23.406;2023-02-26T11:35:53;2.57;;;2.37;;
6348;SDS011;3207;42.648;23.406;2023-02-26T11:38:24;2.67;;;2.30;;
6348;SDS011;3207;42.648;23.406;2023-02-26T11:40:56;3.27;;;3.07;;
6348;SDS011;3207;42.648;23.406;2023-02-26T11:43:24;3.40;;;3.10;;
6348;SDS011;3207;42.648;23.406;2023-02-26T11:45:59;3.33;;;2.50;;
6348;SDS011;3207;42.648;23.406;2023-02-26T11:48:43;2.77;;;2.50;;
6348;SDS011;3207;42.648;23.406;2023-02-26T11:51:14;2.73;;;2.40;;
6348;SDS011;3207;42.648;23.406;2023-02-26T11:53:47;2.90;;;2.67;;
6348;SDS011;3207;42.648;23.406;2023-02-26T11:56:18;2.60;;;2.40;;
6348;SDS011;3207;42.648;23.406;2023-02-26T11:58:50;3.30;;;2.57;;
6348;SDS011;3207;42.648;23.406;2023-02-26T12:01:20;3.07;;;2.77;;
6348;SDS011;3207;42.648;23.406;2023-02-26T12:03:53;2.50;;;2.30;;
6348;SDS011;3207;42.648;23.406;2023-02-26T12:06:24;5.23;;;2.40;;
6348;SDS011;3207;42.648;23.406;2023-02-26T12:08:51;2.50;;;2.30;;
6348;SDS011;3207;42.648;23.406;2023-02-26T12:11:35;2.90;;;2.70;;
6348;SDS011;3207;42.648;23.406;2023-02-26T12:14:39;3.17;;;2.87;;
6348;SDS011;3207;42.648;23.406;2023-02-26T12:17:28;2.73;;;2.53;;
6348;SDS011;3207;42.648;23.406;2023-02-26T12:20:06;3.07;;;2.63;;
6348;SDS011;3207;42.648;23.406;2023-02-26T12:22:50;3.53;;;2.80;;
6348;SDS011;3207;42.648;23.406;2023-02-26T12:25:39;2.80;;;2.50;;
6348;SDS011;3207;42.648;23.406;2023-02-26T12:28:37;3.70;;;2.90;;
6348;SDS011;3207;42.648;23.406;2023-02-26T12:31:27;3.43;;;3.00;;
6348;SDS011;3207;42.648;23.406;2023-02-26T12:34:10;3.57;;;3.10;;
6348;SDS011;3207;42.648;23.406;2023-02-26T12:37:22;5.97;;;3.87;;
6348;SDS011;3207;42.648;23.406;2023-02-26T12:40:02;2.90;;;2.60;;
6348;SDS011;3207;42.648;23.406;2023-02-26T12:42:46;3.00;;;2.80;;
6348;SDS011;3207;42.648;23.406;2023-02-26T12:45:23;2.83;;;2.63;;
6348;SDS011;3207;42.648;23.406;2023-02-26T12:48:11;2.67;;;2.47;;
6348;SDS011;3207;42.648;23.406;2023-02-26T12:50:56;3.10;;;2.80;;
6348;SDS011;3207;42.648;23.406;2023-02-26T12:53:41;2.90;;;2.50;;
6348;SDS011;3207;42.648;23.406;2023-02-26T12:56:31;3.00;;;2.70;;
6348;SDS011;3207;42.648;23.406;2023-02-26T12:59:12;3.87;;;3.30;;
6348;SDS011;3207;42.648;23.406;2023-02-26T13:01:54;2.97;;;2.60;;
6348;SDS011;3207;42.648;23.406;2023-02-26T13:04:38;4.03;;;3.00;;
6348;SDS011;3207;42.648;23.406;2023-02-26T13:10:16;3.10;;;2.53;;
6348;SDS011;3207;42.648;23.406;2023-02-26T13:12:54;3.37;;;3.07;;
6348;SDS011;3207;42.648;23.406;2023-02-26T13:18:35;2.57;;;2.20;;
6348;SDS011;3207;42.648;23.406;2023-02-26T13:21:11;3.33;;;2.73;;
6348;SDS011;3207;42.648;23.406;2023-02-26T13:23:43;3.07;;;2.63;;
6348;SDS011;3207;42.648;23.406;2023-02-26T13:26:17;2.80;;;2.60;;
6348;SDS011;3207;42.648;23.406;2023-02-26T13:28:46;3.03;;;2.67;;
6348;SDS011;3207;42.648;23.406;2023-02-26T13:31:19;2.60;;;2.40;;
6348;SDS011;3207;42.648;23.406;2023-02-26T13:33:48;3.67;;;2.90;;
6348;SDS011;3207;42.648;23.406;2023-02-26T13:36:17;2.50;;;2.30;;
6348;SDS011;3207;42.648;23.406;2023-02-26T13:38:50;3.63;;;3.10;;
6348;SDS011;3207;42.648;23.406;2023-02-26T13:41:32;2.50;;;2.30;;
6348;SDS011;3207;42.648;23.406;2023-02-26T13:44:11;2.87;;;2.60;;
6348;SDS011;3207;42.648;23.406;2023-02-26T13:47:02;3.50;;;2.53;;
6348;SDS011;3207;42.648;23.406;2023-02-26T13:49:45;2.73;;;2.50;;
6348;SDS011;3207;42.648;23.406;2023-02-26T13:52:23;2.67;;;2.47;;
6348;SDS011;3207;42.648;23.406;2023-02-26T13:54:52;2.50;;;2.30;;
6348;SDS011;3207;42.648;23.406;2023-02-26T13:57:24;2.40;;;2.17;;
6348;SDS011;3207;42.648;23.406;2023-02-26T14:00:01;3.73;;;2.57;;
6348;SDS011;3207;42.648;23.406;2023-02-26T14:02:44;2.90;;;2.33;;
6348;SDS011;3207;42.648;23.406;2023-02-26T14:05:30;2.80;;;2.60;;
6348;SDS011;3207;42.648;23.406;2023-02-26T14:11:23;2.90;;;2.57;;
6348;SDS011;3207;42.648;23.406;2023-02-26T14:14:06;3.13;;;2.70;;
6348;SDS011;3207;42.648;23.406;2023-02-26T14:16:38;3.57;;;3.27;;
6348;SDS011;3207;42.648;23.406;2023-02-26T14:19:19;3.23;;;2.70;;
6348;SDS011;3207;42.648;23.406;2023-02-26T14:21:49;4.03;;;2.30;;
6348;SDS011;3207;42.648;23.406;2023-02-26T14:24:18;5.57;;;3.10;;
6348;SDS011;3207;42.648;23.406;2023-02-26T14:26:49;2.87;;;2.53;;
6348;SDS011;3207;42.648;23.406;2023-02-26T14:29:37;3.10;;;2.80;;
6348;SDS011;3207;42.648;23.406;2023-02-26T14:32:21;3.00;;;2.70;;
6348;SDS011;3207;42.648;23.406;2023-02-26T14:34:53;2.70;;;2.50;;
6348;SDS011;3207;42.648;23.406;2023-02-26T14:37:22;4.10;;;3.10;;
6348;SDS011;3207;42.648;23.406;2023-02-26T14:39:53;3.10;;;2.80;;
6348;SDS011;3207;42.648;23.406;2023-02-26T14:42:33;3.10;;;2.80;;
6348;SDS011;3207;42.648;23.406;2023-02-26T14:45:07;3.70;;;2.83;;
6348;SDS011;3207;42.648;23.406;2023-02-26T14:47:43;2.67;;;2.47;;
6348;SDS011;3207;42.648;23.406;2023-02-26T14:50:12;4.20;;;3.07;;
6348;SDS011;3207;42.648;23.406;2023-02-26T14:55:46;2.87;;;2.67;;
6348;SDS011;3207;42.648;23.406;2023-02-26T15:01:39;3.33;;;2.60;;
6348;SDS011;3207;42.648;23.406;2023-02-26T15:04:21;3.60;;;3.03;;
6348;SDS011;3207;42.648;23.406;2023-02-26T15:07:14;4.23;;;2.57;;
6348;SDS011;3207;42.648;23.406;2023-02-26T15:10:00;4.30;;;3.07;;
6348;SDS011;3207;42.648;23.406;2023-02-26T15:12:43;2.87;;;2.67;;
6348;SDS011;3207;42.648;23.406;2023-02-26T15:15:32;2.97;;;2.73;;
6348;SDS011;3207;42.648;23.406;2023-02-26T15:18:19;3.97;;;3.10;;
6348;SDS011;3207;42.648;23.406;2023-02-26T15:21:00;5.47;;;3.03;;
6348;SDS011;3207;42.648;23.406;2023-02-26T15:23:36;3.17;;;2.77;;
6348;SDS011;3207;42.648;23.406;2023-02-26T15:26:06;3.13;;;2.77;;
6348;SDS011;3207;42.648;23.406;2023-02-26T15:28:37;2.77;;;2.57;;
6348;SDS011;3207;42.648;23.406;2023-02-26T15:31:06;4.33;;;3.30;;
6348;SDS011;3207;42.648;23.406;2023-02-26T15:33:38;2.50;;;2.30;;
6348;SDS011;3207;42.648;23.406;2023-02-26T15:36:05;6.40;;;2.63;;
6348;SDS011;3207;42.648;23.406;2023-02-26T15:38:44;4.30;;;2.40;;
6348;SDS011;3207;42.648;23.406;2023-02-26T15:41:13;3.63;;;2.70;;
6348;SDS011;3207;42.648;23.406;2023-02-26T15:43:43;3.33;;;2.97;;
6348;SDS011;3207;42.648;23.406;2023-02-26T15:46:13;3.80;;;2.93;;
6348;SDS011;3207;42.648;23.406;2023-02-26T15:48:42;3.43;;;2.63;;
6348;SDS011;3207;42.648;23.406;2023-02-26T15:51:10;2.93;;;2.60;;